Jenny I — 9HKP7 — position and weather

sailwx.info

Track history (hours):
 
Tides and Currents Weather Stations Pressure Air Temp Water Temp Dewpoint Dewpoint Depression Visibility Wind Speed Wind Dir Waves Ship Positions

Jenny I

Last reported at 2017-Sep-26 13:02 UTC. Time now 2017-Oct-20 18:31 UTC.
Position N 39°48' E 025°00'.
Warning: this ship's position is 24 days out of date.

Length 177 m; draft 7 m.

Type: Ship (hazmat cat A). MMSI: 215329000.

Date/timePositionNaut miles runAvg speedWind from/ knotsBaromVisibWave heightAir tempDewpointWater temp
2017-Sep-26 13:02N 39°48' E 025°00'213.4
2017-Sep-26 12:55N 39°50' E 024°60'3 6.0
2017-Sep-26 12:29N 39°52' E 025°02'0 0.2
2017-Sep-26 11:56N 39°52' E 025°02'0 0.0
2017-Sep-26 11:20N 39°52' E 025°02'0 0.0
2017-Sep-26 10:56N 39°52' E 025°02'0 0.0
2017-Sep-26 10:29N 39°52' E 025°02'0 0.0
2017-Sep-26 09:47N 39°52' E 025°02'0 0.0
2017-Sep-26 09:29N 39°52' E 025°02'0 0.0
2017-Sep-26 08:59N 39°52' E 025°02'0 0.0
2017-Sep-26 07:29N 39°52' E 025°02'0 0.0
2017-Sep-26 06:47N 39°52' E 025°02'0 0.0
2017-Sep-26 06:08N 39°52' E 025°02'0 0.0
2017-Sep-26 04:56N 39°52' E 025°02'0 0.0
2017-Sep-26 03:29N 39°52' E 025°02'0 0.0
2017-Sep-26 02:44N 39°52' E 025°02'0 0.0
2017-Sep-25 07:39N 39°52' E 025°02'1 2.3
2017-Sep-25 07:19N 39°51' E 025°01'0 1.3
2017-Sep-25 07:00N 39°51' E 025°02'1 2.9
2017-Sep-25 06:30N 39°50' E 025°00'5 9.7
2017-Sep-25 06:00N 39°46' E 025°04'2313.0
2017-Sep-25 04:14N 39°49' E 025°34'  
2017-Sep-20 19:13N 39°50' E 025°53'1 4.3
2017-Sep-20 19:00N 39°50' E 025°54'0 0.0
2017-Sep-20 16:37N 39°50' E 025°54'0 0.0
2017-Sep-20 16:29N 39°50' E 025°54'0 0.0
2017-Sep-20 16:00N 39°50' E 025°54'0 0.5
2017-Sep-20 15:30N 39°49' E 025°54'3 5.9
2017-Sep-20 14:58N 39°47' E 025°53'  
2017-Sep-17 16:16N 38°40' E 025°30'1213.0
2017-Sep-17 15:21N 38°33' E 025°19'513.2
2017-Sep-17 14:57N 38°29' E 025°14'2313.1
2017-Sep-17 13:11N 38°12' E 024°53'413.2
2017-Sep-17 12:50N 38°09' E 024°49'413.0
2017-Sep-17 12:30N 38°06' E 024°46'5213.0
2017-Sep-17 08:32N 37°21' E 024°14'113.1
2017-Sep-17 08:25N 37°20' E 024°12'513.0
2017-Sep-17 08:00N 37°15' E 024°08'713.0
2017-Sep-17 07:30N 37°10' E 024°03'713.1
2017-Sep-17 07:00N 37°05' E 023°58'612.9
2017-Sep-17 06:30N 37°00' E 023°53'612.9
2017-Sep-17 06:00N 36°55' E 023°48'713.3
2017-Sep-17 05:30N 36°50' E 023°43'713.2
2017-Sep-17 05:00N 36°45' E 023°38'713.2
2017-Sep-17 04:30N 36°39' E 023°33'713.5
2017-Sep-17 04:00N 36°34' E 023°28'1413.7
2017-Sep-17 02:58N 36°23' E 023°17'6313.1
2017-Sep-16 22:08N 36°19' E 021°58'213.7
2017-Sep-16 22:00N 36°19' E 021°56'1714.0
2017-Sep-16 20:46N 36°19' E 021°34'  
Track history (hours):
 
Tides and Currents Weather Stations Pressure Air Temp Water Temp Dewpoint Dewpoint Depression Visibility Wind Speed Wind Dir Waves Ship Positions

Jenny I

Last reported at 2017-Sep-26 13:02 UTC. Time now 2017-Oct-20 18:31 UTC.
Position N 39°48' E 025°00'.
Warning: this ship's position is 24 days out of date.

Length 177 m; draft 7 m.

Type: Ship (hazmat cat A). MMSI: 215329000.

Date/timePositionNaut miles runAvg speedWind from/ knotsBaromVisibWave heightAir tempDewpointWater temp
2017-Sep-26 13:02N 39°48' E 025°00'213.4
2017-Sep-26 12:55N 39°50' E 024°60'3 6.0
2017-Sep-26 12:29N 39°52' E 025°02'0 0.2
2017-Sep-26 11:56N 39°52' E 025°02'0 0.0
2017-Sep-26 11:20N 39°52' E 025°02'0 0.0
2017-Sep-26 10:56N 39°52' E 025°02'0 0.0
2017-Sep-26 10:29N 39°52' E 025°02'0 0.0
2017-Sep-26 09:47N 39°52' E 025°02'0 0.0
2017-Sep-26 09:29N 39°52' E 025°02'0 0.0
2017-Sep-26 08:59N 39°52' E 025°02'0 0.0
2017-Sep-26 07:29N 39°52' E 025°02'0 0.0
2017-Sep-26 06:47N 39°52' E 025°02'0 0.0
2017-Sep-26 06:08N 39°52' E 025°02'0 0.0
2017-Sep-26 04:56N 39°52' E 025°02'0 0.0
2017-Sep-26 03:29N 39°52' E 025°02'0 0.0
2017-Sep-26 02:44N 39°52' E 025°02'0 0.0
2017-Sep-25 07:39N 39°52' E 025°02'1 2.3
2017-Sep-25 07:19N 39°51' E 025°01'0 1.3
2017-Sep-25 07:00N 39°51' E 025°02'1 2.9
2017-Sep-25 06:30N 39°50' E 025°00'5 9.7
2017-Sep-25 06:00N 39°46' E 025°04'2313.0
2017-Sep-25 04:14N 39°49' E 025°34'  
2017-Sep-20 19:13N 39°50' E 025°53'1 4.3
2017-Sep-20 19:00N 39°50' E 025°54'0 0.0
2017-Sep-20 16:37N 39°50' E 025°54'0 0.0
2017-Sep-20 16:29N 39°50' E 025°54'0 0.0
2017-Sep-20 16:00N 39°50' E 025°54'0 0.5
2017-Sep-20 15:30N 39°49' E 025°54'3 5.9
2017-Sep-20 14:58N 39°47' E 025°53'  
2017-Sep-17 16:16N 38°40' E 025°30'1213.0
2017-Sep-17 15:21N 38°33' E 025°19'513.2
2017-Sep-17 14:57N 38°29' E 025°14'2313.1
2017-Sep-17 13:11N 38°12' E 024°53'413.2
2017-Sep-17 12:50N 38°09' E 024°49'413.0
2017-Sep-17 12:30N 38°06' E 024°46'5213.0
2017-Sep-17 08:32N 37°21' E 024°14'113.1
2017-Sep-17 08:25N 37°20' E 024°12'513.0
2017-Sep-17 08:00N 37°15' E 024°08'713.0
2017-Sep-17 07:30N 37°10' E 024°03'713.1
2017-Sep-17 07:00N 37°05' E 023°58'612.9
2017-Sep-17 06:30N 37°00' E 023°53'612.9
2017-Sep-17 06:00N 36°55' E 023°48'713.3
2017-Sep-17 05:30N 36°50' E 023°43'713.2
2017-Sep-17 05:00N 36°45' E 023°38'713.2
2017-Sep-17 04:30N 36°39' E 023°33'713.5
2017-Sep-17 04:00N 36°34' E 023°28'1413.7
2017-Sep-17 02:58N 36°23' E 023°17'6313.1
2017-Sep-16 22:08N 36°19' E 021°58'213.7
2017-Sep-16 22:00N 36°19' E 021°56'1714.0
2017-Sep-16 20:46N 36°19' E 021°34'  

Dump ship's entire track history